sensor_id;sensor_type;location;lat;lon;timestamp;temperature;humidity
3912;DHT22;1971;51.778;10.330;2024-01-30T00:01:10;4.70;99.90
3912;DHT22;1971;51.778;10.330;2024-01-30T00:03:43;4.50;99.90
3912;DHT22;1971;51.778;10.330;2024-01-30T00:06:14;4.60;99.90
3912;DHT22;1971;51.778;10.330;2024-01-30T00:08:44;4.70;99.90
3912;DHT22;1971;51.778;10.330;2024-01-30T00:11:16;4.50;99.90
3912;DHT22;1971;51.778;10.330;2024-01-30T00:13:46;4.40;99.90
3912;DHT22;1971;51.778;10.330;2024-01-30T00:16:20;4.30;99.90
3912;DHT22;1971;51.778;10.330;2024-01-30T00:18:54;4.70;99.90
3912;DHT22;1971;51.778;10.330;2024-01-30T00:21:25;4.60;99.90
3912;DHT22;1971;51.778;10.330;2024-01-30T00:23:55;4.90;99.90
3912;DHT22;1971;51.778;10.330;2024-01-30T00:26:25;5.00;99.90
3912;DHT22;1971;51.778;10.330;2024-01-30T00:28:55;4.90;99.90
3912;DHT22;1971;51.778;10.330;2024-01-30T00:31:26;4.90;99.90
3912;DHT22;1971;51.778;10.330;2024-01-30T00:33:59;4.90;99.90
3912;DHT22;1971;51.778;10.330;2024-01-30T00:36:29;4.90;99.90
3912;DHT22;1971;51.778;10.330;2024-01-30T00:39:01;4.80;99.90
3912;DHT22;1971;51.778;10.330;2024-01-30T00:41:33;5.10;99.90
3912;DHT22;1971;51.778;10.330;2024-01-30T00:44:04;5.00;99.90
3912;DHT22;1971;51.778;10.330;2024-01-30T00:46:34;4.80;99.90
3912;DHT22;1971;51.778;10.330;2024-01-30T00:49:06;5.20;99.90
3912;DHT22;1971;51.778;10.330;2024-01-30T00:51:37;5.20;99.90
3912;DHT22;1971;51.778;10.330;2024-01-30T00:54:07;5.30;99.90
3912;DHT22;1971;51.778;10.330;2024-01-30T00:56:37;5.10;99.90
3912;DHT22;1971;51.778;10.330;2024-01-30T00:59:07;5.40;99.90
3912;DHT22;1971;51.778;10.330;2024-01-30T01:01:37;5.20;99.90
3912;DHT22;1971;51.778;10.330;2024-01-30T01:04:10;5.70;99.90
3912;DHT22;1971;51.778;10.330;2024-01-30T01:06:40;5.60;99.90
3912;DHT22;1971;51.778;10.330;2024-01-30T01:09:11;5.60;99.90
3912;DHT22;1971;51.778;10.330;2024-01-30T01:11:42;5.40;99.90
3912;DHT22;1971;51.778;10.330;2024-01-30T01:14:12;5.10;99.90
3912;DHT22;1971;51.778;10.330;2024-01-30T01:16:42;5.20;99.90
3912;DHT22;1971;51.778;10.330;2024-01-30T01:19:15;5.00;99.90
3912;DHT22;1971;51.778;10.330;2024-01-30T01:21:45;5.10;99.90
3912;DHT22;1971;51.778;10.330;2024-01-30T01:24:15;5.00;99.90
3912;DHT22;1971;51.778;10.330;2024-01-30T01:26:46;5.20;99.90
3912;DHT22;1971;51.778;10.330;2024-01-30T01:29:16;5.00;99.90
3912;DHT22;1971;51.778;10.330;2024-01-30T01:31:48;5.00;99.90
3912;DHT22;1971;51.778;10.330;2024-01-30T01:34:21;4.90;99.90
3912;DHT22;1971;51.778;10.330;2024-01-30T01:36:56;4.90;99.90
3912;DHT22;1971;51.778;10.330;2024-01-30T01:39:27;4.80;99.90
3912;DHT22;1971;51.778;10.330;2024-01-30T01:41:57;4.60;99.90
3912;DHT22;1971;51.778;10.330;2024-01-30T01:44:27;4.80;99.90
3912;DHT22;1971;51.778;10.330;2024-01-30T01:46:58;4.70;99.90
3912;DHT22;1971;51.778;10.330;2024-01-30T01:49:31;4.60;99.90
3912;DHT22;1971;51.778;10.330;2024-01-30T01:52:02;4.70;99.90
3912;DHT22;1971;51.778;10.330;2024-01-30T01:54:33;4.40;99.90
3912;DHT22;1971;51.778;10.330;2024-01-30T01:57:04;4.60;99.90
3912;DHT22;1971;51.778;10.330;2024-01-30T01:59:34;4.60;99.90
3912;DHT22;1971;51.778;10.330;2024-01-30T02:02:06;4.60;99.90
3912;DHT22;1971;51.778;10.330;2024-01-30T02:04:43;4.70;99.90
3912;DHT22;1971;51.778;10.330;2024-01-30T02:07:14;4.50;99.90
3912;DHT22;1971;51.778;10.330;2024-01-30T02:09:45;4.50;99.90
3912;DHT22;1971;51.778;10.330;2024-01-30T02:12:15;4.70;99.90
3912;DHT22;1971;51.778;10.330;2024-01-30T02:14:45;4.90;99.90
3912;DHT22;1971;51.778;10.330;2024-01-30T02:17:16;4.80;99.90
3912;DHT22;1971;51.778;10.330;2024-01-30T02:19:49;4.90;99.90
3912;DHT22;1971;51.778;10.330;2024-01-30T02:22:22;4.70;99.90
3912;DHT22;1971;51.778;10.330;2024-01-30T02:24:53;5.00;99.90
3912;DHT22;1971;51.778;10.330;2024-01-30T02:27:23;5.00;99.90
3912;DHT22;1971;51.778;10.330;2024-01-30T02:29:53;5.10;99.90
3912;DHT22;1971;51.778;10.330;2024-01-30T02:32:24;5.30;99.90
3912;DHT22;1971;51.778;10.330;2024-01-30T02:34:54;5.30;99.90
3912;DHT22;1971;51.778;10.330;2024-01-30T02:37:27;5.10;99.90
3912;DHT22;1971;51.778;10.330;2024-01-30T02:39:57;5.30;99.90
3912;DHT22;1971;51.778;10.330;2024-01-30T02:42:28;5.00;99.90
3912;DHT22;1971;51.778;10.330;2024-01-30T02:44:58;4.90;99.90
3912;DHT22;1971;51.778;10.330;2024-01-30T02:47:29;4.80;99.90
3912;DHT22;1971;51.778;10.330;2024-01-30T02:49:59;4.90;99.90
3912;DHT22;1971;51.778;10.330;2024-01-30T02:52:33;4.80;99.90
3912;DHT22;1971;51.778;10.330;2024-01-30T02:55:04;4.90;99.90
3912;DHT22;1971;51.778;10.330;2024-01-30T02:57:34;4.80;99.90
3912;DHT22;1971;51.778;10.330;2024-01-30T03:00:06;4.90;99.90
3912;DHT22;1971;51.778;10.330;2024-01-30T03:02:37;5.10;99.90
3912;DHT22;1971;51.778;10.330;2024-01-30T03:05:08;5.10;99.90
3912;DHT22;1971;51.778;10.330;2024-01-30T03:07:41;4.90;99.90
3912;DHT22;1971;51.778;10.330;2024-01-30T03:10:11;4.80;99.90
3912;DHT22;1971;51.778;10.330;2024-01-30T03:12:41;5.00;99.90
3912;DHT22;1971;51.778;10.330;2024-01-30T03:15:11;4.90;99.90
3912;DHT22;1971;51.778;10.330;2024-01-30T03:17:42;4.80;99.90
3912;DHT22;1971;51.778;10.330;2024-01-30T03:20:12;4.80;99.90
3912;DHT22;1971;51.778;10.330;2024-01-30T03:22:45;4.90;99.90
3912;DHT22;1971;51.778;10.330;2024-01-30T03:25:15;5.00;99.90
3912;DHT22;1971;51.778;10.330;2024-01-30T03:27:45;4.90;99.90
3912;DHT22;1971;51.778;10.330;2024-01-30T03:30:15;4.70;99.90
3912;DHT22;1971;51.778;10.330;2024-01-30T03:32:46;4.80;99.90
3912;DHT22;1971;51.778;10.330;2024-01-30T03:35:16;4.80;99.90
3912;DHT22;1971;51.778;10.330;2024-01-30T03:37:48;4.70;99.90
3912;DHT22;1971;51.778;10.330;2024-01-30T03:40:19;4.50;99.90
3912;DHT22;1971;51.778;10.330;2024-01-30T03:42:49;4.60;99.90
3912;DHT22;1971;51.778;10.330;2024-01-30T03:45:19;4.40;99.90
3912;DHT22;1971;51.778;10.330;2024-01-30T03:47:49;4.60;99.90
3912;DHT22;1971;51.778;10.330;2024-01-30T03:50:20;4.20;99.90
3912;DHT22;1971;51.778;10.330;2024-01-30T03:52:52;4.60;99.90
3912;DHT22;1971;51.778;10.330;2024-01-30T03:55:22;4.30;99.90
3912;DHT22;1971;51.778;10.330;2024-01-30T03:57:52;4.50;99.90
3912;DHT22;1971;51.778;10.330;2024-01-30T04:00:25;4.30;99.90
3912;DHT22;1971;51.778;10.330;2024-01-30T04:02:56;4.40;99.90
3912;DHT22;1971;51.778;10.330;2024-01-30T04:05:26;4.50;99.90
3912;DHT22;1971;51.778;10.330;2024-01-30T04:07:59;4.60;99.90
3912;DHT22;1971;51.778;10.330;2024-01-30T04:10:29;4.60;99.90
3912;DHT22;1971;51.778;10.330;2024-01-30T04:13:00;4.30;99.90
3912;DHT22;1971;51.778;10.330;2024-01-30T04:15:30;4.40;99.90
3912;DHT22;1971;51.778;10.330;2024-01-30T04:18:00;4.20;99.90
3912;DHT22;1971;51.778;10.330;2024-01-30T04:20:30;4.20;99.90
3912;DHT22;1971;51.778;10.330;2024-01-30T04:23:03;4.30;99.90
3912;DHT22;1971;51.778;10.330;2024-01-30T04:25:34;4.30;99.90
3912;DHT22;1971;51.778;10.330;2024-01-30T04:28:04;4.30;99.90
3912;DHT22;1971;51.778;10.330;2024-01-30T04:30:35;4.40;99.90
3912;DHT22;1971;51.778;10.330;2024-01-30T04:33:06;4.10;99.90
3912;DHT22;1971;51.778;10.330;2024-01-30T04:35:36;4.10;99.90
3912;DHT22;1971;51.778;10.330;2024-01-30T04:38:08;4.30;99.90
3912;DHT22;1971;51.778;10.330;2024-01-30T04:40:39;4.20;99.90
3912;DHT22;1971;51.778;10.330;2024-01-30T04:43:09;4.20;99.90
3912;DHT22;1971;51.778;10.330;2024-01-30T04:45:40;4.50;99.90
3912;DHT22;1971;51.778;10.330;2024-01-30T04:48:11;4.60;99.90
3912;DHT22;1971;51.778;10.330;2024-01-30T04:50:41;4.60;99.90
3912;DHT22;1971;51.778;10.330;2024-01-30T04:53:13;4.70;99.90
3912;DHT22;1971;51.778;10.330;2024-01-30T04:55:44;4.80;99.90
3912;DHT22;1971;51.778;10.330;2024-01-30T04:58:14;4.70;99.90
3912;DHT22;1971;51.778;10.330;2024-01-30T05:00:44;4.90;99.90
3912;DHT22;1971;51.778;10.330;2024-01-30T05:03:19;4.60;99.90
3912;DHT22;1971;51.778;10.330;2024-01-30T05:05:50;4.60;99.90
3912;DHT22;1971;51.778;10.330;2024-01-30T05:08:23;4.60;99.90
3912;DHT22;1971;51.778;10.330;2024-01-30T05:10:53;4.50;99.90
3912;DHT22;1971;51.778;10.330;2024-01-30T05:13:23;4.90;99.90
3912;DHT22;1971;51.778;10.330;2024-01-30T05:15:53;4.70;99.90
3912;DHT22;1971;51.778;10.330;2024-01-30T05:18:23;4.80;99.90
3912;DHT22;1971;51.778;10.330;2024-01-30T05:20:53;4.90;99.90
3912;DHT22;1971;51.778;10.330;2024-01-30T05:23:26;4.90;99.90
3912;DHT22;1971;51.778;10.330;2024-01-30T05:25:56;4.90;99.90
3912;DHT22;1971;51.778;10.330;2024-01-30T05:28:28;4.80;99.90
3912;DHT22;1971;51.778;10.330;2024-01-30T05:30:59;4.90;99.90
3912;DHT22;1971;51.778;10.330;2024-01-30T05:33:29;4.90;99.90
3912;DHT22;1971;51.778;10.330;2024-01-30T05:36:00;4.80;99.90
3912;DHT22;1971;51.778;10.330;2024-01-30T05:38:32;4.90;99.90
3912;DHT22;1971;51.778;10.330;2024-01-30T05:41:03;4.80;99.90
3912;DHT22;1971;51.778;10.330;2024-01-30T05:43:34;4.90;99.90
3912;DHT22;1971;51.778;10.330;2024-01-30T05:46:04;4.90;99.90
3912;DHT22;1971;51.778;10.330;2024-01-30T05:48:35;4.90;99.90
3912;DHT22;1971;51.778;10.330;2024-01-30T05:51:06;4.70;99.90
3912;DHT22;1971;51.778;10.330;2024-01-30T05:53:39;4.80;99.90
3912;DHT22;1971;51.778;10.330;2024-01-30T05:56:09;4.90;99.90
3912;DHT22;1971;51.778;10.330;2024-01-30T05:58:39;4.80;99.90
3912;DHT22;1971;51.778;10.330;2024-01-30T06:01:10;4.50;99.90
3912;DHT22;1971;51.778;10.330;2024-01-30T06:03:40;4.60;99.90
3912;DHT22;1971;51.778;10.330;2024-01-30T06:06:10;4.80;99.90
3912;DHT22;1971;51.778;10.330;2024-01-30T06:08:43;4.80;99.90
3912;DHT22;1971;51.778;10.330;2024-01-30T06:11:13;4.90;99.90
3912;DHT22;1971;51.778;10.330;2024-01-30T06:13:43;5.00;99.90
3912;DHT22;1971;51.778;10.330;2024-01-30T06:16:14;4.80;99.90
3912;DHT22;1971;51.778;10.330;2024-01-30T06:18:44;4.80;99.90
3912;DHT22;1971;51.778;10.330;2024-01-30T06:21:14;5.00;99.90
3912;DHT22;1971;51.778;10.330;2024-01-30T06:23:47;4.80;99.90
3912;DHT22;1971;51.778;10.330;2024-01-30T06:26:17;4.80;99.90
3912;DHT22;1971;51.778;10.330;2024-01-30T06:28:47;5.00;99.90
3912;DHT22;1971;51.778;10.330;2024-01-30T06:31:17;4.90;99.90
3912;DHT22;1971;51.778;10.330;2024-01-30T06:33:48;4.80;99.90
3912;DHT22;1971;51.778;10.330;2024-01-30T06:36:18;4.90;99.90
3912;DHT22;1971;51.778;10.330;2024-01-30T06:38:51;4.80;99.90
3912;DHT22;1971;51.778;10.330;2024-01-30T06:41:22;5.00;99.90
3912;DHT22;1971;51.778;10.330;2024-01-30T06:43:52;4.80;99.90
3912;DHT22;1971;51.778;10.330;2024-01-30T06:46:23;4.90;99.90
3912;DHT22;1971;51.778;10.330;2024-01-30T06:48:53;4.80;99.90
3912;DHT22;1971;51.778;10.330;2024-01-30T06:51:23;4.70;99.90
3912;DHT22;1971;51.778;10.330;2024-01-30T06:53:56;4.70;99.90
3912;DHT22;1971;51.778;10.330;2024-01-30T06:56:26;4.80;99.90
3912;DHT22;1971;51.778;10.330;2024-01-30T06:58:56;4.80;99.90
3912;DHT22;1971;51.778;10.330;2024-01-30T07:01:30;4.90;99.90
3912;DHT22;1971;51.778;10.330;2024-01-30T07:04:00;5.00;99.90
3912;DHT22;1971;51.778;10.330;2024-01-30T07:06:31;4.90;99.90
3912;DHT22;1971;51.778;10.330;2024-01-30T07:09:03;4.60;99.90
3912;DHT22;1971;51.778;10.330;2024-01-30T07:11:34;4.90;99.90
3912;DHT22;1971;51.778;10.330;2024-01-30T07:14:04;4.70;99.90
3912;DHT22;1971;51.778;10.330;2024-01-30T07:16:34;4.70;99.90
3912;DHT22;1971;51.778;10.330;2024-01-30T07:19:04;4.70;99.90
3912;DHT22;1971;51.778;10.330;2024-01-30T07:21:37;5.00;99.90
3912;DHT22;1971;51.778;10.330;2024-01-30T07:24:10;4.90;99.90
3912;DHT22;1971;51.778;10.330;2024-01-30T07:26:40;4.80;99.90
3912;DHT22;1971;51.778;10.330;2024-01-30T07:29:14;4.80;99.90
3912;DHT22;1971;51.778;10.330;2024-01-30T07:31:45;4.80;99.90
3912;DHT22;1971;51.778;10.330;2024-01-30T07:34:15;4.90;99.90
3912;DHT22;1971;51.778;10.330;2024-01-30T07:36:46;4.80;99.90
3912;DHT22;1971;51.778;10.330;2024-01-30T07:39:21;4.80;99.90
3912;DHT22;1971;51.778;10.330;2024-01-30T07:41:52;5.00;99.90
3912;DHT22;1971;51.778;10.330;2024-01-30T07:44:22;4.90;99.90
3912;DHT22;1971;51.778;10.330;2024-01-30T07:46:52;4.90;99.90
3912;DHT22;1971;51.778;10.330;2024-01-30T07:49:22;5.10;99.90
3912;DHT22;1971;51.778;10.330;2024-01-30T07:51:53;5.10;99.90
3912;DHT22;1971;51.778;10.330;2024-01-30T07:54:26;5.10;99.90
3912;DHT22;1971;51.778;10.330;2024-01-30T07:56:56;5.20;99.90
3912;DHT22;1971;51.778;10.330;2024-01-30T07:59:26;5.20;99.90
3912;DHT22;1971;51.778;10.330;2024-01-30T08:01:56;5.30;99.90
3912;DHT22;1971;51.778;10.330;2024-01-30T08:04:26;5.20;99.90
3912;DHT22;1971;51.778;10.330;2024-01-30T08:06:57;5.40;99.90
3912;DHT22;1971;51.778;10.330;2024-01-30T08:09:30;5.50;99.90
3912;DHT22;1971;51.778;10.330;2024-01-30T08:12:00;5.70;99.90
3912;DHT22;1971;51.778;10.330;2024-01-30T08:14:30;5.80;99.90
3912;DHT22;1971;51.778;10.330;2024-01-30T08:17:00;5.60;99.90
3912;DHT22;1971;51.778;10.330;2024-01-30T08:19:31;5.70;99.90
3912;DHT22;1971;51.778;10.330;2024-01-30T08:22:01;6.10;99.90
3912;DHT22;1971;51.778;10.330;2024-01-30T08:24:34;6.00;99.90
3912;DHT22;1971;51.778;10.330;2024-01-30T08:27:04;6.10;99.90
3912;DHT22;1971;51.778;10.330;2024-01-30T08:29:36;5.90;99.90
3912;DHT22;1971;51.778;10.330;2024-01-30T08:32:07;6.00;99.90
3912;DHT22;1971;51.778;10.330;2024-01-30T08:34:37;6.20;99.90
3912;DHT22;1971;51.778;10.330;2024-01-30T08:37:07;6.00;99.90
3912;DHT22;1971;51.778;10.330;2024-01-30T08:39:40;6.40;99.90
3912;DHT22;1971;51.778;10.330;2024-01-30T08:42:11;6.20;99.90
3912;DHT22;1971;51.778;10.330;2024-01-30T08:44:41;6.20;99.90
3912;DHT22;1971;51.778;10.330;2024-01-30T08:47:11;6.20;99.90
3912;DHT22;1971;51.778;10.330;2024-01-30T08:49:43;6.20;99.90
3912;DHT22;1971;51.778;10.330;2024-01-30T08:52:13;6.30;99.90
3912;DHT22;1971;51.778;10.330;2024-01-30T08:54:46;6.40;99.90
3912;DHT22;1971;51.778;10.330;2024-01-30T08:57:16;6.40;99.90
3912;DHT22;1971;51.778;10.330;2024-01-30T08:59:46;6.40;99.90
3912;DHT22;1971;51.778;10.330;2024-01-30T09:02:17;6.30;99.90
3912;DHT22;1971;51.778;10.330;2024-01-30T09:04:47;6.70;99.90
3912;DHT22;1971;51.778;10.330;2024-01-30T09:07:18;6.70;99.90
3912;DHT22;1971;51.778;10.330;2024-01-30T09:09:51;6.30;99.90
3912;DHT22;1971;51.778;10.330;2024-01-30T09:12:21;6.80;99.90
3912;DHT22;1971;51.778;10.330;2024-01-30T09:14:51;6.70;99.90
3912;DHT22;1971;51.778;10.330;2024-01-30T09:17:21;6.50;99.90
3912;DHT22;1971;51.778;10.330;2024-01-30T09:19:51;6.70;99.90
3912;DHT22;1971;51.778;10.330;2024-01-30T09:22:22;6.80;99.90
3912;DHT22;1971;51.778;10.330;2024-01-30T09:24:55;6.80;99.90
3912;DHT22;1971;51.778;10.330;2024-01-30T09:27:26;6.80;99.90
3912;DHT22;1971;51.778;10.330;2024-01-30T09:29:56;6.50;99.90
3912;DHT22;1971;51.778;10.330;2024-01-30T09:32:26;6.90;99.90
3912;DHT22;1971;51.778;10.330;2024-01-30T09:34:57;6.60;99.90
3912;DHT22;1971;51.778;10.330;2024-01-30T09:37:29;6.80;99.90
3912;DHT22;1971;51.778;10.330;2024-01-30T09:40:02;6.90;99.90
3912;DHT22;1971;51.778;10.330;2024-01-30T09:42:34;6.80;99.90
3912;DHT22;1971;51.778;10.330;2024-01-30T09:45:06;6.70;99.90
3912;DHT22;1971;51.778;10.330;2024-01-30T09:47:39;6.80;99.90
3912;DHT22;1971;51.778;10.330;2024-01-30T09:50:12;7.10;99.90
3912;DHT22;1971;51.778;10.330;2024-01-30T09:52:43;7.10;99.90
3912;DHT22;1971;51.778;10.330;2024-01-30T09:55:16;6.70;99.90
3912;DHT22;1971;51.778;10.330;2024-01-30T09:57:47;6.90;99.90
3912;DHT22;1971;51.778;10.330;2024-01-30T10:00:17;6.80;99.90
3912;DHT22;1971;51.778;10.330;2024-01-30T10:02:50;6.60;99.90
3912;DHT22;1971;51.778;10.330;2024-01-30T10:05:20;7.10;99.90
3912;DHT22;1971;51.778;10.330;2024-01-30T10:07:56;6.90;99.90
3912;DHT22;1971;51.778;10.330;2024-01-30T10:10:29;6.90;99.90
3912;DHT22;1971;51.778;10.330;2024-01-30T10:12:59;7.00;99.90
3912;DHT22;1971;51.778;10.330;2024-01-30T10:15:31;7.00;99.90
3912;DHT22;1971;51.778;10.330;2024-01-30T10:18:03;7.20;93.80
3912;DHT22;1971;51.778;10.330;2024-01-30T10:20:34;7.00;69.60
3912;DHT22;1971;51.778;10.330;2024-01-30T10:23:04;6.90;49.50
3912;DHT22;1971;51.778;10.330;2024-01-30T10:25:38;7.00;54.30
3912;DHT22;1971;51.778;10.330;2024-01-30T10:28:09;7.40;60.20
3912;DHT22;1971;51.778;10.330;2024-01-30T10:30:40;7.40;43.90
3912;DHT22;1971;51.778;10.330;2024-01-30T10:33:10;7.40;22.30
3912;DHT22;1971;51.778;10.330;2024-01-30T10:35:40;7.40;1.00
3912;DHT22;1971;51.778;10.330;2024-01-30T10:38:12;7.20;1.00
3912;DHT22;1971;51.778;10.330;2024-01-30T10:40:50;7.20;1.00
3912;DHT22;1971;51.778;10.330;2024-01-30T10:43:22;7.40;1.00
3912;DHT22;1971;51.778;10.330;2024-01-30T10:45:53;7.50;1.00
3912;DHT22;1971;51.778;10.330;2024-01-30T10:48:30;7.40;1.00
3912;DHT22;1971;51.778;10.330;2024-01-30T10:51:02;7.30;1.00
3912;DHT22;1971;51.778;10.330;2024-01-30T10:53:34;7.20;1.00
3912;DHT22;1971;51.778;10.330;2024-01-30T10:56:10;7.30;1.00
3912;DHT22;1971;51.778;10.330;2024-01-30T10:58:41;7.30;1.00
3912;DHT22;1971;51.778;10.330;2024-01-30T11:01:12;7.20;1.00
3912;DHT22;1971;51.778;10.330;2024-01-30T11:03:43;7.50;1.00
3912;DHT22;1971;51.778;10.330;2024-01-30T11:06:14;7.40;1.00
3912;DHT22;1971;51.778;10.330;2024-01-30T11:08:46;7.80;1.00
3912;DHT22;1971;51.778;10.330;2024-01-30T11:11:18;7.80;1.00
3912;DHT22;1971;51.778;10.330;2024-01-30T11:13:50;7.60;1.00
3912;DHT22;1971;51.778;10.330;2024-01-30T11:16:20;7.70;1.00
3912;DHT22;1971;51.778;10.330;2024-01-30T11:18:51;7.80;1.00
3912;DHT22;1971;51.778;10.330;2024-01-30T11:21:25;7.70;1.00
3912;DHT22;1971;51.778;10.330;2024-01-30T11:23:55;7.90;1.00
3912;DHT22;1971;51.778;10.330;2024-01-30T11:26:31;7.70;1.00
3912;DHT22;1971;51.778;10.330;2024-01-30T11:29:03;7.80;1.00
3912;DHT22;1971;51.778;10.330;2024-01-30T11:31:34;7.90;1.00
3912;DHT22;1971;51.778;10.330;2024-01-30T11:34:04;8.10;1.00
3912;DHT22;1971;51.778;10.330;2024-01-30T11:36:37;8.20;1.00
3912;DHT22;1971;51.778;10.330;2024-01-30T11:39:08;7.70;1.00
3912;DHT22;1971;51.778;10.330;2024-01-30T11:41:42;8.00;1.00
3912;DHT22;1971;51.778;10.330;2024-01-30T11:44:13;8.20;1.00
3912;DHT22;1971;51.778;10.330;2024-01-30T11:46:45;8.20;1.00
3912;DHT22;1971;51.778;10.330;2024-01-30T11:49:16;8.10;1.00
3912;DHT22;1971;51.778;10.330;2024-01-30T11:51:46;7.80;1.00
3912;DHT22;1971;51.778;10.330;2024-01-30T11:54:18;7.70;1.00
3912;DHT22;1971;51.778;10.330;2024-01-30T11:56:50;7.80;1.00
3912;DHT22;1971;51.778;10.330;2024-01-30T11:59:21;7.80;1.00
3912;DHT22;1971;51.778;10.330;2024-01-30T12:01:51;7.70;1.00
3912;DHT22;1971;51.778;10.330;2024-01-30T12:04:22;7.90;1.00
3912;DHT22;1971;51.778;10.330;2024-01-30T12:06:52;7.80;1.00
3912;DHT22;1971;51.778;10.330;2024-01-30T12:09:23;7.60;1.00
3912;DHT22;1971;51.778;10.330;2024-01-30T12:11:57;7.70;1.00
3912;DHT22;1971;51.778;10.330;2024-01-30T12:14:27;7.70;1.00
3912;DHT22;1971;51.778;10.330;2024-01-30T12:16:58;7.80;1.00
3912;DHT22;1971;51.778;10.330;2024-01-30T12:19:28;7.90;1.00
3912;DHT22;1971;51.778;10.330;2024-01-30T12:21:59;7.70;1.00
3912;DHT22;1971;51.778;10.330;2024-01-30T12:24:30;7.90;1.00
3912;DHT22;1971;51.778;10.330;2024-01-30T12:27:03;7.60;1.00
3912;DHT22;1971;51.778;10.330;2024-01-30T12:29:33;7.80;1.00
3912;DHT22;1971;51.778;10.330;2024-01-30T12:32:06;7.60;1.00
3912;DHT22;1971;51.778;10.330;2024-01-30T12:34:40;7.80;17.90
3912;DHT22;1971;51.778;10.330;2024-01-30T12:37:26;7.80;11.90
3912;DHT22;1971;51.778;10.330;2024-01-30T12:39:57;7.80;29.40
3912;DHT22;1971;51.778;10.330;2024-01-30T12:42:30;7.60;7.40
3912;DHT22;1971;51.778;10.330;2024-01-30T12:45:02;7.70;1.00
3912;DHT22;1971;51.778;10.330;2024-01-30T12:47:32;7.70;1.00
3912;DHT22;1971;51.778;10.330;2024-01-30T12:50:03;7.70;1.00
3912;DHT22;1971;51.778;10.330;2024-01-30T12:52:33;7.70;1.00
3912;DHT22;1971;51.778;10.330;2024-01-30T12:55:05;7.80;1.00
3912;DHT22;1971;51.778;10.330;2024-01-30T12:57:38;7.80;1.00
3912;DHT22;1971;51.778;10.330;2024-01-30T13:00:09;7.90;1.00
3912;DHT22;1971;51.778;10.330;2024-01-30T13:02:39;7.70;1.00
3912;DHT22;1971;51.778;10.330;2024-01-30T13:05:12;7.80;1.00
3912;DHT22;1971;51.778;10.330;2024-01-30T13:07:42;7.90;1.00
3912;DHT22;1971;51.778;10.330;2024-01-30T13:10:12;7.80;1.00
3912;DHT22;1971;51.778;10.330;2024-01-30T13:12:45;7.80;1.00
3912;DHT22;1971;51.778;10.330;2024-01-30T13:15:15;7.80;1.00
3912;DHT22;1971;51.778;10.330;2024-01-30T13:17:46;8.10;1.00
3912;DHT22;1971;51.778;10.330;2024-01-30T13:20:16;8.10;1.00
3912;DHT22;1971;51.778;10.330;2024-01-30T13:22:48;8.10;1.00
3912;DHT22;1971;51.778;10.330;2024-01-30T13:25:19;8.00;1.00
3912;DHT22;1971;51.778;10.330;2024-01-30T13:27:52;8.10;1.00
3912;DHT22;1971;51.778;10.330;2024-01-30T13:30:23;8.00;1.00
3912;DHT22;1971;51.778;10.330;2024-01-30T13:32:53;8.10;1.00
3912;DHT22;1971;51.778;10.330;2024-01-30T13:35:23;7.90;1.00
3912;DHT22;1971;51.778;10.330;2024-01-30T13:37:54;7.90;1.00
3912;DHT22;1971;51.778;10.330;2024-01-30T13:40:25;8.00;1.00
3912;DHT22;1971;51.778;10.330;2024-01-30T13:42:58;7.80;1.00
3912;DHT22;1971;51.778;10.330;2024-01-30T13:45:29;7.70;1.00
3912;DHT22;1971;51.778;10.330;2024-01-30T13:47:59;7.80;1.00
3912;DHT22;1971;51.778;10.330;2024-01-30T13:50:31;7.70;2.00
3912;DHT22;1971;51.778;10.330;2024-01-30T13:53:02;7.80;21.70
3912;DHT22;1971;51.778;10.330;2024-01-30T13:55:34;7.70;30.50
3912;DHT22;1971;51.778;10.330;2024-01-30T13:58:07;7.70;27.30
3912;DHT22;1971;51.778;10.330;2024-01-30T14:00:41;7.60;24.80
3912;DHT22;1971;51.778;10.330;2024-01-30T14:03:11;7.60;33.60
3912;DHT22;1971;51.778;10.330;2024-01-30T14:05:41;7.70;49.20
3912;DHT22;1971;51.778;10.330;2024-01-30T14:08:11;7.60;46.30
3912;DHT22;1971;51.778;10.330;2024-01-30T14:10:42;7.60;42.90
3912;DHT22;1971;51.778;10.330;2024-01-30T14:13:15;7.50;46.10
3912;DHT22;1971;51.778;10.330;2024-01-30T14:15:45;7.60;71.80
3912;DHT22;1971;51.778;10.330;2024-01-30T14:18:15;7.60;73.60
3912;DHT22;1971;51.778;10.330;2024-01-30T14:20:45;7.70;80.20
3912;DHT22;1971;51.778;10.330;2024-01-30T14:23:18;7.40;90.10
3912;DHT22;1971;51.778;10.330;2024-01-30T14:25:49;7.40;99.90
3912;DHT22;1971;51.778;10.330;2024-01-30T14:28:22;7.40;99.90
3912;DHT22;1971;51.778;10.330;2024-01-30T14:30:52;7.40;99.90
3912;DHT22;1971;51.778;10.330;2024-01-30T14:33:22;7.40;99.90
3912;DHT22;1971;51.778;10.330;2024-01-30T14:35:53;7.40;99.90
3912;DHT22;1971;51.778;10.330;2024-01-30T14:38:23;7.30;99.90
3912;DHT22;1971;51.778;10.330;2024-01-30T14:40:55;7.60;99.90
3912;DHT22;1971;51.778;10.330;2024-01-30T14:43:28;7.20;99.90
3912;DHT22;1971;51.778;10.330;2024-01-30T14:45:58;7.00;99.90
3912;DHT22;1971;51.778;10.330;2024-01-30T14:48:28;7.20;99.90
3912;DHT22;1971;51.778;10.330;2024-01-30T14:50:59;7.30;99.90
3912;DHT22;1971;51.778;10.330;2024-01-30T14:53:29;6.90;99.90
3912;DHT22;1971;51.778;10.330;2024-01-30T14:55:59;7.50;99.90
3912;DHT22;1971;51.778;10.330;2024-01-30T14:58:33;7.20;99.90
3912;DHT22;1971;51.778;10.330;2024-01-30T15:01:03;7.10;99.90
3912;DHT22;1971;51.778;10.330;2024-01-30T15:03:34;7.10;99.90
3912;DHT22;1971;51.778;10.330;2024-01-30T15:06:05;7.10;99.90
3912;DHT22;1971;51.778;10.330;2024-01-30T15:08:35;7.20;99.90
3912;DHT22;1971;51.778;10.330;2024-01-30T15:11:05;7.10;99.90
3912;DHT22;1971;51.778;10.330;2024-01-30T15:13:37;7.00;99.90
3912;DHT22;1971;51.778;10.330;2024-01-30T15:16:08;6.60;99.90
3912;DHT22;1971;51.778;10.330;2024-01-30T15:18:38;7.10;99.90
3912;DHT22;1971;51.778;10.330;2024-01-30T15:21:08;7.10;99.90
3912;DHT22;1971;51.778;10.330;2024-01-30T15:23:38;7.00;99.90
3912;DHT22;1971;51.778;10.330;2024-01-30T15:26:09;7.30;99.90
3912;DHT22;1971;51.778;10.330;2024-01-30T15:28:45;7.00;99.90
3912;DHT22;1971;51.778;10.330;2024-01-30T15:31:15;6.80;99.90
3912;DHT22;1971;51.778;10.330;2024-01-30T15:33:45;7.20;99.90
3912;DHT22;1971;51.778;10.330;2024-01-30T15:36:15;6.90;99.90
3912;DHT22;1971;51.778;10.330;2024-01-30T15:38:45;6.90;99.90
3912;DHT22;1971;51.778;10.330;2024-01-30T15:41:15;6.90;99.90
3912;DHT22;1971;51.778;10.330;2024-01-30T15:43:48;6.70;99.90
3912;DHT22;1971;51.778;10.330;2024-01-30T15:46:18;7.10;99.90
3912;DHT22;1971;51.778;10.330;2024-01-30T15:48:48;6.60;99.90
3912;DHT22;1971;51.778;10.330;2024-01-30T15:51:19;6.60;99.90
3912;DHT22;1971;51.778;10.330;2024-01-30T15:53:51;6.80;99.90
3912;DHT22;1971;51.778;10.330;2024-01-30T15:56:22;6.60;99.90
3912;DHT22;1971;51.778;10.330;2024-01-30T15:58:54;6.60;99.90
3912;DHT22;1971;51.778;10.330;2024-01-30T16:01:24;6.70;99.90
3912;DHT22;1971;51.778;10.330;2024-01-30T16:03:54;6.70;99.90
3912;DHT22;1971;51.778;10.330;2024-01-30T16:06:25;6.70;99.90
3912;DHT22;1971;51.778;10.330;2024-01-30T16:08:55;6.70;99.90
3912;DHT22;1971;51.778;10.330;2024-01-30T16:11:25;6.80;99.90
3912;DHT22;1971;51.778;10.330;2024-01-30T16:13:57;6.60;99.90
3912;DHT22;1971;51.778;10.330;2024-01-30T16:16:28;6.60;99.90
3912;DHT22;1971;51.778;10.330;2024-01-30T16:18:58;6.80;99.90
3912;DHT22;1971;51.778;10.330;2024-01-30T16:21:28;6.70;99.90
3912;DHT22;1971;51.778;10.330;2024-01-30T16:23:59;6.70;99.90
3912;DHT22;1971;51.778;10.330;2024-01-30T16:26:29;6.90;99.90
3912;DHT22;1971;51.778;10.330;2024-01-30T16:29:02;6.70;99.90